sensor_id;sensor_type;location;lat;lon;timestamp;pressure;altitude;pressure_sealevel;temperature;humidity
9676;BME280;4876;42.656;23.292;2023-08-01T00:00:14;94090.34;;;21.16;68.59
9676;BME280;4876;42.656;23.292;2023-08-01T00:02:41;94085.75;;;20.98;69.12
9676;BME280;4876;42.656;23.292;2023-08-01T00:05:10;94087.28;;;21.10;68.72
9676;BME280;4876;42.656;23.292;2023-08-01T00:07:37;94087.66;;;20.98;69.07
9676;BME280;4876;42.656;23.292;2023-08-01T00:10:04;94078.88;;;21.05;68.99
9676;BME280;4876;42.656;23.292;2023-08-01T00:12:31;94086.91;;;21.08;69.03
9676;BME280;4876;42.656;23.292;2023-08-01T00:14:58;94078.50;;;21.17;68.67
9676;BME280;4876;42.656;23.292;2023-08-01T00:17:25;94080.41;;;21.27;68.38
9676;BME280;4876;42.656;23.292;2023-08-01T00:19:52;94073.91;;;21.35;68.13
9676;BME280;4876;42.656;23.292;2023-08-01T00:22:21;94074.31;;;21.37;68.09
9676;BME280;4876;42.656;23.292;2023-08-01T00:24:48;94070.47;;;21.28;68.27
9676;BME280;4876;42.656;23.292;2023-08-01T00:27:15;94068.94;;;20.98;69.27
9676;BME280;4876;42.656;23.292;2023-08-01T00:29:42;94071.25;;;21.07;68.71
9676;BME280;4876;42.656;23.292;2023-08-01T00:32:09;94068.56;;;21.14;68.82
9676;BME280;4876;42.656;23.292;2023-08-01T00:34:36;94064.38;;;21.09;68.85
9676;BME280;4876;42.656;23.292;2023-08-01T00:37:03;94074.28;;;21.05;68.66
9676;BME280;4876;42.656;23.292;2023-08-01T00:39:32;94077.75;;;20.88;68.92
9676;BME280;4876;42.656;23.292;2023-08-01T00:41:59;94073.53;;;20.69;69.53
9676;BME280;4876;42.656;23.292;2023-08-01T00:44:25;94077.34;;;20.72;69.65
9676;BME280;4876;42.656;23.292;2023-08-01T00:46:52;94065.91;;;20.75;69.21
9676;BME280;4876;42.656;23.292;2023-08-01T00:49:19;94069.31;;;20.79;69.28
9676;BME280;4876;42.656;23.292;2023-08-01T00:51:47;94072.78;;;20.76;69.28
9676;BME280;4876;42.656;23.292;2023-08-01T00:54:14;94067.03;;;20.91;69.05
9676;BME280;4876;42.656;23.292;2023-08-01T00:56:43;94065.50;;;21.05;68.63
9676;BME280;4876;42.656;23.292;2023-08-01T00:59:12;94046.81;;;20.90;68.69
9676;BME280;4876;42.656;23.292;2023-08-01T01:01:39;94055.59;;;20.87;68.65
9676;BME280;4876;42.656;23.292;2023-08-01T01:04:06;94059.03;;;20.95;68.78
9676;BME280;4876;42.656;23.292;2023-08-01T01:06:36;94045.28;;;20.82;69.12
9676;BME280;4876;42.656;23.292;2023-08-01T01:09:14;94052.91;;;20.98;68.81
9676;BME280;4876;42.656;23.292;2023-08-01T01:11:43;94059.00;;;20.98;68.84
9676;BME280;4876;42.656;23.292;2023-08-01T01:14:10;94052.91;;;20.80;69.08
9676;BME280;4876;42.656;23.292;2023-08-01T01:16:36;94051.75;;;20.74;69.25
9676;BME280;4876;42.656;23.292;2023-08-01T01:19:07;94049.09;;;20.88;68.70
9676;BME280;4876;42.656;23.292;2023-08-01T01:21:38;94041.44;;;20.97;68.32
9676;BME280;4876;42.656;23.292;2023-08-01T01:24:07;94048.31;;;20.91;69.02
9676;BME280;4876;42.656;23.292;2023-08-01T01:26:36;94037.63;;;20.91;68.92
9676;BME280;4876;42.656;23.292;2023-08-01T01:29:04;94033.06;;;20.95;68.70
9676;BME280;4876;42.656;23.292;2023-08-01T01:31:34;94041.44;;;21.05;68.27
9676;BME280;4876;42.656;23.292;2023-08-01T01:34:02;93967.38;;;20.37;68.73
9676;BME280;4876;42.656;23.292;2023-08-01T01:36:29;94034.97;;;20.88;68.78
9676;BME280;4876;42.656;23.292;2023-08-01T01:38:57;94034.56;;;20.86;69.10
9676;BME280;4876;42.656;23.292;2023-08-01T01:41:24;94033.44;;;20.83;69.04
9676;BME280;4876;42.656;23.292;2023-08-01T01:43:51;94032.66;;;20.79;69.13
9676;BME280;4876;42.656;23.292;2023-08-01T01:46:18;94030.38;;;20.74;68.58
9676;BME280;4876;42.656;23.292;2023-08-01T01:48:45;94032.28;;;20.84;68.32
9676;BME280;4876;42.656;23.292;2023-08-01T01:51:11;94035.34;;;21.01;67.77
9676;BME280;4876;42.656;23.292;2023-08-01T01:53:38;94032.69;;;20.90;67.77
9676;BME280;4876;42.656;23.292;2023-08-01T01:56:07;94039.94;;;20.82;68.03
9676;BME280;4876;42.656;23.292;2023-08-01T01:58:33;94044.91;;;20.87;67.43
9676;BME280;4876;42.656;23.292;2023-08-01T02:01:00;94046.03;;;20.79;67.29
9676;BME280;4876;42.656;23.292;2023-08-01T02:03:27;94040.69;;;20.86;66.98
9676;BME280;4876;42.656;23.292;2023-08-01T02:05:53;94033.44;;;20.73;67.39
9676;BME280;4876;42.656;23.292;2023-08-01T02:08:20;94045.28;;;20.82;67.79
9676;BME280;4876;42.656;23.292;2023-08-01T02:10:47;94039.16;;;20.67;67.82
9676;BME280;4876;42.656;23.292;2023-08-01T02:13:16;94049.75;;;20.28;67.21
9676;BME280;4876;42.656;23.292;2023-08-01T02:15:43;94041.38;;;20.33;67.15
9676;BME280;4876;42.656;23.292;2023-08-01T02:18:09;94040.59;;;20.29;67.13
9676;BME280;4876;42.656;23.292;2023-08-01T02:20:36;94029.94;;;20.40;66.53
9676;BME280;4876;42.656;23.292;2023-08-01T02:23:03;94043.72;;;20.49;66.27
9676;BME280;4876;42.656;23.292;2023-08-01T02:25:30;94040.66;;;20.54;66.22
9676;BME280;4876;42.656;23.292;2023-08-01T02:27:56;94036.06;;;20.48;65.76
9676;BME280;4876;42.656;23.292;2023-08-01T02:30:25;94036.47;;;20.50;65.38
9676;BME280;4876;42.656;23.292;2023-08-01T02:32:52;94039.09;;;20.32;65.51
9676;BME280;4876;42.656;23.292;2023-08-01T02:35:19;94037.53;;;20.31;65.28
9676;BME280;4876;42.656;23.292;2023-08-01T02:37:46;94038.28;;;20.21;65.93
9676;BME280;4876;42.656;23.292;2023-08-01T02:40:12;94035.63;;;20.28;66.12
9676;BME280;4876;42.656;23.292;2023-08-01T02:42:39;94043.28;;;20.36;65.75
9676;BME280;4876;42.656;23.292;2023-08-01T02:45:06;94032.19;;;20.27;66.00
9676;BME280;4876;42.656;23.292;2023-08-01T02:47:35;94045.97;;;20.40;65.99
9676;BME280;4876;42.656;23.292;2023-08-01T02:50:02;94006.22;;;20.10;65.20
9676;BME280;4876;42.656;23.292;2023-08-01T02:52:28;94033.75;;;20.42;65.06
9676;BME280;4876;42.656;23.292;2023-08-01T02:54:55;94035.69;;;20.49;64.79
9676;BME280;4876;42.656;23.292;2023-08-01T02:57:22;94038.00;;;20.51;64.87
9676;BME280;4876;42.656;23.292;2023-08-01T02:59:49;94039.13;;;20.46;64.64
9676;BME280;4876;42.656;23.292;2023-08-01T03:02:15;94031.84;;;20.32;64.18
9676;BME280;4876;42.656;23.292;2023-08-01T03:04:44;94045.53;;;20.31;64.76
9676;BME280;4876;42.656;23.292;2023-08-01T03:07:11;94033.41;;;20.48;64.63
9676;BME280;4876;42.656;23.292;2023-08-01T03:09:38;94039.50;;;20.48;65.13
9676;BME280;4876;42.656;23.292;2023-08-01T03:12:05;94033.41;;;20.48;65.28
9676;BME280;4876;42.656;23.292;2023-08-01T03:14:32;94010.06;;;20.27;65.70
9676;BME280;4876;42.656;23.292;2023-08-01T03:16:59;94037.91;;;20.29;65.73
9676;BME280;4876;42.656;23.292;2023-08-01T03:19:25;94036.78;;;20.27;65.83
9676;BME280;4876;42.656;23.292;2023-08-01T03:21:53;94029.13;;;20.22;66.21
9676;BME280;4876;42.656;23.292;2023-08-01T03:24:20;94038.69;;;20.26;66.24
9676;BME280;4876;42.656;23.292;2023-08-01T03:26:47;94038.69;;;20.26;65.88
9676;BME280;4876;42.656;23.292;2023-08-01T03:29:14;94036.84;;;20.52;65.15
9676;BME280;4876;42.656;23.292;2023-08-01T03:31:41;94023.50;;;20.77;63.70
9676;BME280;4876;42.656;23.292;2023-08-01T03:34:07;94048.31;;;21.27;62.51
9676;BME280;4876;42.656;23.292;2023-08-01T03:36:35;94049.78;;;21.64;61.36
9676;BME280;4876;42.656;23.292;2023-08-01T03:39:03;94013.09;;;21.54;60.12
9676;BME280;4876;42.656;23.292;2023-08-01T03:41:31;94045.50;;;21.88;60.25
9676;BME280;4876;42.656;23.292;2023-08-01T03:43:58;94055.78;;;21.96;59.22
9676;BME280;4876;42.656;23.292;2023-08-01T03:46:25;94052.38;;;21.85;59.60
9676;BME280;4876;42.656;23.292;2023-08-01T03:48:51;94050.03;;;22.12;59.16
9676;BME280;4876;42.656;23.292;2023-08-01T03:51:18;94049.50;;;22.35;58.22
9676;BME280;4876;42.656;23.292;2023-08-01T03:53:46;94054.66;;;21.90;59.83
9676;BME280;4876;42.656;23.292;2023-08-01T03:56:14;94048.84;;;22.17;59.51
9676;BME280;4876;42.656;23.292;2023-08-01T03:58:41;94054.38;;;22.58;58.59
9676;BME280;4876;42.656;23.292;2023-08-01T04:01:08;94063.44;;;23.30;56.67
9676;BME280;4876;42.656;23.292;2023-08-01T04:03:34;94064.53;;;24.08;53.83
9676;BME280;4876;42.656;23.292;2023-08-01T04:06:01;94065.09;;;24.57;51.74
9676;BME280;4876;42.656;23.292;2023-08-01T04:08:28;94066.44;;;25.23;50.25
9676;BME280;4876;42.656;23.292;2023-08-01T04:10:55;94065.97;;;25.28;49.50
9676;BME280;4876;42.656;23.292;2023-08-01T04:13:23;94056.16;;;24.91;50.13
9676;BME280;4876;42.656;23.292;2023-08-01T04:15:50;94067.72;;;24.88;50.45
9676;BME280;4876;42.656;23.292;2023-08-01T04:18:16;94064.38;;;24.53;52.43
9676;BME280;4876;42.656;23.292;2023-08-01T04:20:43;94074.53;;;24.42;53.71
9676;BME280;4876;42.656;23.292;2023-08-01T04:23:10;94070.38;;;24.34;54.71
9676;BME280;4876;42.656;23.292;2023-08-01T04:25:37;94072.22;;;23.76;56.67
9676;BME280;4876;42.656;23.292;2023-08-01T04:28:04;94074.44;;;23.40;58.58
9676;BME280;4876;42.656;23.292;2023-08-01T04:30:32;94072.78;;;23.12;60.03
9676;BME280;4876;42.656;23.292;2023-08-01T04:32:59;94073.59;;;23.05;60.80
9676;BME280;4876;42.656;23.292;2023-08-01T04:35:26;94075.41;;;22.63;62.50
9676;BME280;4876;42.656;23.292;2023-08-01T04:37:53;94069.00;;;22.43;62.84
9676;BME280;4876;42.656;23.292;2023-08-01T04:40:19;94068.75;;;22.16;64.22
9676;BME280;4876;42.656;23.292;2023-08-01T04:42:46;94071.78;;;22.25;64.00
9676;BME280;4876;42.656;23.292;2023-08-01T04:45:13;94072.50;;;22.36;63.49
9676;BME280;4876;42.656;23.292;2023-08-01T04:47:41;94075.59;;;22.27;63.93
9676;BME280;4876;42.656;23.292;2023-08-01T04:50:08;94061.13;;;22.03;64.47
9676;BME280;4876;42.656;23.292;2023-08-01T04:52:35;94065.34;;;22.12;65.31
9676;BME280;4876;42.656;23.292;2023-08-01T04:55:02;94069.19;;;21.96;65.57
9676;BME280;4876;42.656;23.292;2023-08-01T04:57:29;94065.44;;;21.76;67.13
9676;BME280;4876;42.656;23.292;2023-08-01T04:59:56;94070.41;;;21.81;66.07
9676;BME280;4876;42.656;23.292;2023-08-01T05:02:23;94060.09;;;21.65;66.66
9676;BME280;4876;42.656;23.292;2023-08-01T05:04:51;94060.34;;;22.03;66.58
9676;BME280;4876;42.656;23.292;2023-08-01T05:07:18;94060.34;;;22.03;65.61
9676;BME280;4876;42.656;23.292;2023-08-01T05:09:45;94064.16;;;22.20;65.01
9676;BME280;4876;42.656;23.292;2023-08-01T05:12:11;94067.06;;;22.47;64.07
9676;BME280;4876;42.656;23.292;2023-08-01T05:14:38;94063.34;;;22.26;64.10
9676;BME280;4876;42.656;23.292;2023-08-01T05:17:05;94064.88;;;22.31;63.96
9676;BME280;4876;42.656;23.292;2023-08-01T05:19:32;94073.16;;;22.51;63.49
9676;BME280;4876;42.656;23.292;2023-08-01T05:22:00;94058.41;;;22.84;62.47
9676;BME280;4876;42.656;23.292;2023-08-01T05:24:27;94072.16;;;22.93;61.34
9676;BME280;4876;42.656;23.292;2023-08-01T05:26:54;94073.75;;;22.87;61.52
9676;BME280;4876;42.656;23.292;2023-08-01T05:29:21;94079.31;;;23.10;61.15
9676;BME280;4876;42.656;23.292;2023-08-01T05:31:48;94048.25;;;23.09;60.41
9676;BME280;4876;42.656;23.292;2023-08-01T05:34:14;94086.69;;;23.44;60.16
9676;BME280;4876;42.656;23.292;2023-08-01T05:36:41;94078.78;;;23.30;60.13
9676;BME280;4876;42.656;23.292;2023-08-01T05:39:09;94079.66;;;23.95;58.39
9676;BME280;4876;42.656;23.292;2023-08-01T05:41:36;94075.56;;;24.79;55.53
9676;BME280;4876;42.656;23.292;2023-08-01T05:44:03;94066.22;;;24.87;54.71
9676;BME280;4876;42.656;23.292;2023-08-01T05:46:30;94070.19;;;24.79;54.95
9676;BME280;4876;42.656;23.292;2023-08-01T05:48:57;94078.50;;;24.88;54.86
9676;BME280;4876;42.656;23.292;2023-08-01T05:51:24;94072.81;;;24.55;55.43
9676;BME280;4876;42.656;23.292;2023-08-01T05:53:51;94064.13;;;24.98;54.58
9676;BME280;4876;42.656;23.292;2023-08-01T05:56:19;94062.50;;;24.77;54.39
9676;BME280;4876;42.656;23.292;2023-08-01T05:58:47;94056.41;;;24.46;55.91
9676;BME280;4876;42.656;23.292;2023-08-01T06:01:15;94067.44;;;24.82;54.60
9676;BME280;4876;42.656;23.292;2023-08-01T06:03:42;94065.50;;;24.83;53.88
9676;BME280;4876;42.656;23.292;2023-08-01T06:06:09;94070.84;;;24.86;53.55
9676;BME280;4876;42.656;23.292;2023-08-01T06:08:35;94068.84;;;24.63;54.55
9676;BME280;4876;42.656;23.292;2023-08-01T06:11:02;94059.91;;;24.43;55.62
9676;BME280;4876;42.656;23.292;2023-08-01T06:13:30;94063.88;;;24.89;50.84
9676;BME280;4876;42.656;23.292;2023-08-01T06:15:57;94052.31;;;24.92;50.57
9676;BME280;4876;42.656;23.292;2023-08-01T06:18:24;94069.63;;;25.14;50.83
9676;BME280;4876;42.656;23.292;2023-08-01T06:20:51;94059.94;;;25.64;49.74
9676;BME280;4876;42.656;23.292;2023-08-01T06:23:18;94060.50;;;25.08;49.38
9676;BME280;4876;42.656;23.292;2023-08-01T06:25:45;94059.00;;;25.07;49.32
9676;BME280;4876;42.656;23.292;2023-08-01T06:28:11;94050.41;;;25.16;47.76
9676;BME280;4876;42.656;23.292;2023-08-01T06:30:40;94058.19;;;25.10;48.63
9676;BME280;4876;42.656;23.292;2023-08-01T06:33:06;94062.34;;;24.88;47.99
9676;BME280;4876;42.656;23.292;2023-08-01T06:35:33;94060.25;;;24.14;48.86
9676;BME280;4876;42.656;23.292;2023-08-01T06:38:00;94058.50;;;24.62;48.88
9676;BME280;4876;42.656;23.292;2023-08-01T06:40:27;94046.13;;;24.68;49.56
9676;BME280;4876;42.656;23.292;2023-08-01T06:42:53;94044.75;;;25.54;48.55
9676;BME280;4876;42.656;23.292;2023-08-01T06:45:20;94055.25;;;25.91;47.48
9676;BME280;4876;42.656;23.292;2023-08-01T06:47:48;94055.13;;;25.55;48.56
9676;BME280;4876;42.656;23.292;2023-08-01T06:50:15;94051.06;;;25.67;48.46
9676;BME280;4876;42.656;23.292;2023-08-01T06:52:42;94053.94;;;24.86;50.41
9676;BME280;4876;42.656;23.292;2023-08-01T06:55:09;94053.59;;;25.54;49.18
9676;BME280;4876;42.656;23.292;2023-08-01T06:57:35;94049.59;;;25.19;49.28
9676;BME280;4876;42.656;23.292;2023-08-01T07:00:03;94055.22;;;25.01;49.88
9676;BME280;4876;42.656;23.292;2023-08-01T07:02:30;94057.94;;;24.47;51.25
9676;BME280;4876;42.656;23.292;2023-08-01T07:04:58;94056.38;;;24.50;51.29
9676;BME280;4876;42.656;23.292;2023-08-01T07:07:25;94058.81;;;24.06;51.96
9676;BME280;4876;42.656;23.292;2023-08-01T07:09:51;94047.97;;;24.13;52.33
9676;BME280;4876;42.656;23.292;2023-08-01T07:12:18;94034.72;;;24.30;51.80
9676;BME280;4876;42.656;23.292;2023-08-01T07:14:45;94046.03;;;24.98;50.91
9676;BME280;4876;42.656;23.292;2023-08-01T07:17:12;94044.25;;;25.39;50.06
9676;BME280;4876;42.656;23.292;2023-08-01T07:19:39;94043.09;;;24.89;49.98
9676;BME280;4876;42.656;23.292;2023-08-01T07:22:07;94036.59;;;25.14;49.94
9676;BME280;4876;42.656;23.292;2023-08-01T07:24:53;94034.47;;;25.25;50.03
9676;BME280;4876;42.656;23.292;2023-08-01T07:27:20;94038.88;;;25.15;50.24
9676;BME280;4876;42.656;23.292;2023-08-01T07:29:47;94042.34;;;25.59;48.60
9676;BME280;4876;42.656;23.292;2023-08-01T07:32:14;94035.56;;;25.51;49.29
9676;BME280;4876;42.656;23.292;2023-08-01T07:34:41;94029.94;;;25.65;49.32
9676;BME280;4876;42.656;23.292;2023-08-01T07:37:09;94031.28;;;25.97;48.30
9676;BME280;4876;42.656;23.292;2023-08-01T07:39:36;94026.00;;;25.90;48.72
9676;BME280;4876;42.656;23.292;2023-08-01T07:42:03;94029.63;;;26.03;48.77
9676;BME280;4876;42.656;23.292;2023-08-01T07:44:30;94031.06;;;25.88;49.53
9676;BME280;4876;42.656;23.292;2023-08-01T07:46:57;94022.63;;;25.86;49.88
9676;BME280;4876;42.656;23.292;2023-08-01T07:49:24;94031.69;;;26.15;48.99
9676;BME280;4876;42.656;23.292;2023-08-01T07:51:51;94038.66;;;25.93;48.86
9676;BME280;4876;42.656;23.292;2023-08-01T07:54:19;94037.16;;;25.92;49.58
9676;BME280;4876;42.656;23.292;2023-08-01T07:56:46;94023.38;;;26.06;48.53
9676;BME280;4876;42.656;23.292;2023-08-01T07:59:14;94020.00;;;25.39;49.87
9676;BME280;4876;42.656;23.292;2023-08-01T08:01:41;94026.84;;;25.43;50.10
9676;BME280;4876;42.656;23.292;2023-08-01T08:04:08;94025.19;;;25.30;51.56
9676;BME280;4876;42.656;23.292;2023-08-01T08:06:36;94025.88;;;25.34;51.10
9676;BME280;4876;42.656;23.292;2023-08-01T08:09:03;94021.34;;;25.50;51.05
9676;BME280;4876;42.656;23.292;2023-08-01T08:11:32;94015.63;;;25.68;50.55
9676;BME280;4876;42.656;23.292;2023-08-01T08:13:59;94016.50;;;25.85;50.08
9676;BME280;4876;42.656;23.292;2023-08-01T08:16:26;94012.72;;;25.59;50.60
9676;BME280;4876;42.656;23.292;2023-08-01T08:18:53;94005.63;;;26.09;49.39
9676;BME280;4876;42.656;23.292;2023-08-01T08:21:19;94011.59;;;25.80;50.23
9676;BME280;4876;42.656;23.292;2023-08-01T08:23:46;94003.94;;;25.79;50.45
9676;BME280;4876;42.656;23.292;2023-08-01T08:26:14;94001.13;;;26.02;49.69
9676;BME280;4876;42.656;23.292;2023-08-01T08:28:42;94000.00;;;26.19;49.65
9676;BME280;4876;42.656;23.292;2023-08-01T08:31:09;94006.00;;;26.27;49.79
9676;BME280;4876;42.656;23.292;2023-08-01T08:33:36;93994.22;;;26.37;49.43
9676;BME280;4876;42.656;23.292;2023-08-01T08:36:03;93996.63;;;26.15;49.49
9676;BME280;4876;42.656;23.292;2023-08-01T08:38:30;93989.59;;;26.38;49.12
9676;BME280;4876;42.656;23.292;2023-08-01T08:41:08;93984.50;;;26.23;49.17
9676;BME280;4876;42.656;23.292;2023-08-01T08:43:36;93975.16;;;25.92;49.58
9676;BME280;4876;42.656;23.292;2023-08-01T08:46:05;93987.66;;;26.02;49.50
9676;BME280;4876;42.656;23.292;2023-08-01T08:48:32;93986.34;;;26.26;48.66
9676;BME280;4876;42.656;23.292;2023-08-01T08:51:00;93978.66;;;26.45;48.85
9676;BME280;4876;42.656;23.292;2023-08-01T08:53:27;93980.97;;;26.46;48.12
9676;BME280;4876;42.656;23.292;2023-08-01T08:55:54;93983.66;;;26.26;48.55
9676;BME280;4876;42.656;23.292;2023-08-01T08:58:22;93970.69;;;26.21;49.78
9676;BME280;4876;42.656;23.292;2023-08-01T09:00:49;93972.44;;;26.12;49.83
9676;BME280;4876;42.656;23.292;2023-08-01T09:03:17;93977.88;;;25.92;49.34
9676;BME280;4876;42.656;23.292;2023-08-01T09:05:48;93978.28;;;26.26;49.07
9676;BME280;4876;42.656;23.292;2023-08-01T09:08:18;93963.00;;;25.84;49.72
9676;BME280;4876;42.656;23.292;2023-08-01T09:10:46;93970.91;;;25.74;50.18
9676;BME280;4876;42.656;23.292;2023-08-01T09:13:13;93958.94;;;25.75;49.99
9676;BME280;4876;42.656;23.292;2023-08-01T09:15:42;93963.09;;;25.80;50.00
9676;BME280;4876;42.656;23.292;2023-08-01T09:18:09;93961.28;;;25.93;49.67
9676;BME280;4876;42.656;23.292;2023-08-01T09:20:42;93962.09;;;26.26;49.34
9676;BME280;4876;42.656;23.292;2023-08-01T09:23:10;93953.13;;;26.49;49.05
9676;BME280;4876;42.656;23.292;2023-08-01T09:25:38;93937.91;;;26.59;49.23
9676;BME280;4876;42.656;23.292;2023-08-01T09:28:18;93925.00;;;26.67;47.99
9676;BME280;4876;42.656;23.292;2023-08-01T09:30:47;93940.91;;;26.45;48.71
9676;BME280;4876;42.656;23.292;2023-08-01T09:33:14;93949.97;;;26.18;49.44
9676;BME280;4876;42.656;23.292;2023-08-01T09:35:42;93947.47;;;26.27;49.50
9676;BME280;4876;42.656;23.292;2023-08-01T09:38:12;93945.91;;;26.26;50.44
9676;BME280;4876;42.656;23.292;2023-08-01T09:40:40;93943.28;;;26.43;49.14
9676;BME280;4876;42.656;23.292;2023-08-01T09:43:06;93939.91;;;26.55;48.56
9676;BME280;4876;42.656;23.292;2023-08-01T09:45:33;93939.41;;;26.44;49.12
9676;BME280;4876;42.656;23.292;2023-08-01T09:48:00;93943.41;;;27.01;48.11
9676;BME280;4876;42.656;23.292;2023-08-01T09:50:27;93937.00;;;27.11;48.20
9676;BME280;4876;42.656;23.292;2023-08-01T09:53:06;93928.25;;;27.36;47.27
9676;BME280;4876;42.656;23.292;2023-08-01T09:55:33;93935.50;;;27.39;47.24
9676;BME280;4876;42.656;23.292;2023-08-01T09:58:00;93927.66;;;26.83;48.09
9676;BME280;4876;42.656;23.292;2023-08-01T10:00:28;93921.53;;;26.66;48.82
9676;BME280;4876;42.656;23.292;2023-08-01T10:02:57;93918.47;;;26.80;48.39
9676;BME280;4876;42.656;23.292;2023-08-01T10:05:26;93909.69;;;26.93;48.21
9676;BME280;4876;42.656;23.292;2023-08-01T10:07:58;93906.13;;;27.12;48.11
9676;BME280;4876;42.656;23.292;2023-08-01T10:10:25;93901.59;;;27.09;47.42
9676;BME280;4876;42.656;23.292;2023-08-01T10:12:54;93899.34;;;26.75;48.46
9676;BME280;4876;42.656;23.292;2023-08-01T10:15:21;93901.28;;;26.91;48.39
9676;BME280;4876;42.656;23.292;2023-08-01T10:17:48;93891.38;;;27.00;47.77
9676;BME280;4876;42.656;23.292;2023-08-01T10:20:15;93898.47;;;26.94;48.12
9676;BME280;4876;42.656;23.292;2023-08-01T10:22:43;93899.38;;;27.04;47.44
9676;BME280;4876;42.656;23.292;2023-08-01T10:25:12;93898.00;;;27.28;46.99
9676;BME280;4876;42.656;23.292;2023-08-01T10:27:39;93885.00;;;27.23;47.77
9676;BME280;4876;42.656;23.292;2023-08-01T10:30:06;93895.88;;;27.20;46.99
9676;BME280;4876;42.656;23.292;2023-08-01T10:32:36;93881.31;;;27.17;46.83
9676;BME280;4876;42.656;23.292;2023-08-01T10:35:04;93883.81;;;27.66;46.12
9676;BME280;4876;42.656;23.292;2023-08-01T10:37:41;93865.38;;;27.90;45.31
9676;BME280;4876;42.656;23.292;2023-08-01T10:40:09;93860.59;;;28.20;45.14
9676;BME280;4876;42.656;23.292;2023-08-01T10:42:41;93858.34;;;27.93;44.88
9676;BME280;4876;42.656;23.292;2023-08-01T10:45:20;93859.00;;;27.71;45.13
9676;BME280;4876;42.656;23.292;2023-08-01T10:47:48;93857.69;;;27.88;45.61
9676;BME280;4876;42.656;23.292;2023-08-01T10:50:15;93857.91;;;28.07;45.32
9676;BME280;4876;42.656;23.292;2023-08-01T10:52:43;93863.66;;;27.96;45.57
9676;BME280;4876;42.656;23.292;2023-08-01T10:55:10;93846.25;;;27.84;45.90
9676;BME280;4876;42.656;23.292;2023-08-01T10:57:46;93855.63;;;27.93;45.41
9676;BME280;4876;42.656;23.292;2023-08-01T11:00:15;93848.81;;;28.13;44.91
9676;BME280;4876;42.656;23.292;2023-08-01T11:02:49;93844.47;;;28.41;43.29
9676;BME280;4876;42.656;23.292;2023-08-01T11:05:16;93849.47;;;28.05;44.26
9676;BME280;4876;42.656;23.292;2023-08-01T11:07:53;93833.91;;;28.34;43.92
9676;BME280;4876;42.656;23.292;2023-08-01T11:10:20;93837.56;;;28.28;43.92
9676;BME280;4876;42.656;23.292;2023-08-01T11:12:48;93826.09;;;28.11;43.83
9676;BME280;4876;42.656;23.292;2023-08-01T11:15:15;93819.25;;;28.44;42.79
9676;BME280;4876;42.656;23.292;2023-08-01T11:17:43;93817.34;;;28.67;41.92
9676;BME280;4876;42.656;23.292;2023-08-01T11:20:13;93817.66;;;28.69;42.01
9676;BME280;4876;42.656;23.292;2023-08-01T11:22:50;93818.94;;;28.77;41.92
9676;BME280;4876;42.656;23.292;2023-08-01T11:25:17;93809.47;;;28.82;41.26
9676;BME280;4876;42.656;23.292;2023-08-01T11:27:44;93802.19;;;28.91;40.65
9676;BME280;4876;42.656;23.292;2023-08-01T11:30:12;93797.34;;;28.86;40.47
9676;BME280;4876;42.656;23.292;2023-08-01T11:32:39;93800.38;;;28.88;42.04
9676;BME280;4876;42.656;23.292;2023-08-01T11:35:06;93806.97;;;28.65;42.35
9676;BME280;4876;42.656;23.292;2023-08-01T11:37:35;93798.34;;;28.58;42.76
9676;BME280;4876;42.656;23.292;2023-08-01T11:40:02;93799.03;;;28.71;42.27
9676;BME280;4876;42.656;23.292;2023-08-01T11:42:32;93796.16;;;28.87;41.55
9676;BME280;4876;42.656;23.292;2023-08-01T11:45:09;93797.13;;;28.93;40.56
9676;BME280;4876;42.656;23.292;2023-08-01T11:47:38;93792.03;;;28.61;40.50
9676;BME280;4876;42.656;23.292;2023-08-01T11:50:10;93788.13;;;28.62;39.84
9676;BME280;4876;42.656;23.292;2023-08-01T11:52:37;93790.84;;;28.62;40.24
9676;BME280;4876;42.656;23.292;2023-08-01T11:55:05;93798.22;;;28.61;40.12
9676;BME280;4876;42.656;23.292;2023-08-01T11:57:32;93796.25;;;28.62;39.71
9676;BME280;4876;42.656;23.292;2023-08-01T11:59:59;93783.72;;;28.55;39.34
9676;BME280;4876;42.656;23.292;2023-08-01T12:02:26;93770.53;;;28.57;39.23
9676;BME280;4876;42.656;23.292;2023-08-01T12:04:56;93773.78;;;28.74;38.84
9676;BME280;4876;42.656;23.292;2023-08-01T12:07:25;93775.69;;;28.86;37.50
9676;BME280;4876;42.656;23.292;2023-08-01T12:09:56;93693.44;;;28.40;36.41
9676;BME280;4876;42.656;23.292;2023-08-01T12:12:23;93772.19;;;28.99;35.93
9676;BME280;4876;42.656;23.292;2023-08-01T12:14:50;93761.78;;;29.19;35.50
9676;BME280;4876;42.656;23.292;2023-08-01T12:17:18;93757.19;;;29.38;35.96
9676;BME280;4876;42.656;23.292;2023-08-01T12:19:45;93760.94;;;29.62;36.16
9676;BME280;4876;42.656;23.292;2023-08-01T12:22:13;93755.34;;;29.97;36.20
9676;BME280;4876;42.656;23.292;2023-08-01T12:24:41;93753.38;;;29.88;35.90
9676;BME280;4876;42.656;23.292;2023-08-01T12:27:09;93699.84;;;29.70;35.50
9676;BME280;4876;42.656;23.292;2023-08-01T12:29:36;93755.81;;;30.04;35.64
9676;BME280;4876;42.656;23.292;2023-08-01T12:32:04;93752.75;;;29.84;33.53
9676;BME280;4876;42.656;23.292;2023-08-01T12:34:32;93745.06;;;29.83;34.42
9676;BME280;4876;42.656;23.292;2023-08-01T12:36:59;93740.25;;;29.87;35.33
9676;BME280;4876;42.656;23.292;2023-08-01T12:39:27;93751.41;;;29.98;33.92
9676;BME280;4876;42.656;23.292;2023-08-01T12:41:53;93742.88;;;30.09;32.14
9676;BME280;4876;42.656;23.292;2023-08-01T12:44:20;93741.13;;;30.33;31.97
9676;BME280;4876;42.656;23.292;2023-08-01T12:46:47;93739.44;;;30.36;32.05
9676;BME280;4876;42.656;23.292;2023-08-01T12:49:14;93735.78;;;30.11;32.06
9676;BME280;4876;42.656;23.292;2023-08-01T12:51:41;93736.22;;;30.10;31.96
9676;BME280;4876;42.656;23.292;2023-08-01T12:54:07;93736.13;;;30.32;31.75
9676;BME280;4876;42.656;23.292;2023-08-01T12:56:36;93732.66;;;30.22;31.88
9676;BME280;4876;42.656;23.292;2023-08-01T12:59:02;93671.56;;;29.81;31.43
9676;BME280;4876;42.656;23.292;2023-08-01T13:01:29;93721.06;;;30.40;31.72
9676;BME280;4876;42.656;23.292;2023-08-01T13:03:56;93714.28;;;30.44;31.67
9676;BME280;4876;42.656;23.292;2023-08-01T13:06:23;93713.38;;;30.56;31.80
9676;BME280;4876;42.656;23.292;2023-08-01T13:08:50;93710.34;;;30.64;31.76
9676;BME280;4876;42.656;23.292;2023-08-01T13:11:16;93710.50;;;30.51;31.72